createdAt,value
2018-04-24T00:00:27.312Z,6.37
2018-04-24T00:02:55.688Z,6.37
2018-04-24T00:05:24.088Z,5.68
2018-04-24T00:07:52.472Z,5.53
2018-04-24T00:10:21.014Z,5.20
2018-04-24T00:12:49.400Z,6.18
2018-04-24T00:15:17.784Z,5.22
2018-04-24T00:17:50.757Z,5.40
2018-04-24T00:20:19.218Z,5.90
2018-04-24T00:22:47.572Z,5.07
2018-04-24T00:25:16.708Z,5.37
2018-04-24T00:27:45.145Z,5.50
2018-04-24T00:30:14.288Z,5.05
2018-04-24T00:32:42.660Z,5.35
2018-04-24T00:35:11.053Z,4.85
2018-04-24T00:37:39.433Z,5.07
2018-04-24T00:40:07.844Z,5.62
2018-04-24T00:42:36.990Z,6.18
2018-04-24T00:45:05.413Z,5.72
2018-04-24T00:47:34.561Z,6.07
2018-04-24T00:50:02.929Z,5.80
2018-04-24T00:52:31.329Z,5.20
2018-04-24T00:54:59.696Z,5.68
2018-04-24T00:57:28.088Z,5.37
2018-04-24T00:59:56.461Z,6.00
2018-04-24T01:02:24.861Z,5.03
2018-04-24T01:04:53.236Z,6.18
2018-04-24T01:07:21.841Z,5.80
2018-04-24T01:09:50.213Z,4.05
2018-04-24T01:12:20.104Z,4.78
2018-04-24T01:14:48.510Z,5.25
2018-04-24T01:17:16.899Z,5.57
2018-04-24T01:19:46.063Z,5.50
2018-04-24T01:22:14.433Z,5.62
2018-04-24T01:24:42.829Z,6.32
2018-04-24T01:27:11.200Z,5.70
2018-04-24T01:29:39.604Z,4.90
2018-04-24T01:32:07.976Z,6.20
2018-04-24T01:34:36.368Z,5.55
2018-04-24T01:37:05.505Z,5.60
2018-04-24T01:39:34.098Z,5.55
2018-04-24T01:42:02.464Z,5.32
2018-04-24T01:44:30.837Z,6.25
2018-04-24T01:46:59.233Z,4.60
2018-04-24T01:49:27.601Z,5.00
2018-04-24T01:51:55.996Z,5.47
2018-04-24T01:54:24.372Z,5.93
2018-04-24T01:56:52.793Z,6.25
2018-04-24T01:59:21.166Z,5.37
2018-04-24T02:01:49.544Z,6.57
2018-04-24T02:04:17.937Z,5.47
2018-04-24T02:06:47.075Z,5.87
2018-04-24T02:09:15.481Z,5.45
2018-04-24T02:11:43.856Z,5.18
2018-04-24T02:14:12.721Z,6.60
2018-04-24T02:16:41.088Z,5.95
2018-04-24T02:19:09.456Z,6.25
2018-04-24T02:21:37.848Z,6.37
2018-04-24T02:24:06.223Z,6.18
2018-04-24T02:26:34.609Z,6.62
2018-04-24T02:29:02.984Z,6.07
2018-04-24T02:31:31.889Z,5.97
2018-04-24T02:34:00.299Z,6.37
2018-04-24T02:36:28.752Z,6.35
2018-04-24T02:38:57.143Z,6.47
2018-04-24T02:41:25.516Z,6.12
2018-04-24T02:43:53.916Z,7.37
2018-04-24T02:46:22.280Z,6.07
2018-04-24T02:48:50.688Z,5.80
2018-04-24T02:51:19.827Z,6.45
2018-04-24T02:53:48.239Z,7.07
2018-04-24T02:56:16.614Z,6.03
2018-04-24T02:58:45.130Z,6.40
2018-04-24T03:01:15.157Z,7.18
2018-04-24T03:03:44.325Z,7.37
2018-04-24T03:06:12.723Z,7.10
2018-04-24T03:08:41.124Z,7.53
2018-04-24T03:11:09.564Z,7.47
2018-04-24T03:13:37.932Z,7.03
2018-04-24T03:16:06.316Z,7.30
2018-04-24T03:18:34.715Z,6.97
2018-04-24T03:21:03.859Z,7.65
2018-04-24T03:23:32.264Z,8.57
2018-04-24T03:26:00.645Z,8.13
2018-04-24T03:28:29.188Z,7.12
2018-04-24T03:30:57.666Z,7.78
2018-04-24T03:33:25.960Z,7.40
2018-04-24T03:35:54.360Z,7.43
2018-04-24T03:38:23.249Z,8.85
2018-04-24T03:40:51.680Z,8.40
2018-04-24T03:43:20.055Z,7.85
2018-04-24T03:45:48.477Z,9.20
2018-04-24T03:48:16.865Z,8.18
2018-04-24T03:50:45.233Z,8.45
2018-04-24T03:53:13.629Z,8.00
2018-04-24T03:55:41.997Z,7.53
2018-04-24T03:58:10.406Z,9.32
2018-04-24T04:00:39.549Z,8.73
2018-04-24T04:03:08.117Z,7.78
2018-04-24T04:05:36.488Z,7.85
2018-04-24T04:08:04.878Z,9.68
2018-04-24T04:10:33.269Z,8.18
2018-04-24T04:13:01.646Z,7.43
2018-04-24T04:15:30.057Z,7.80
2018-04-24T04:18:16.377Z,8.77
2018-04-24T04:21:03.293Z,8.90
2018-04-24T04:23:50.229Z,8.75
2018-04-24T04:26:18.631Z,7.78
2018-04-24T04:28:47.001Z,8.48
2018-04-24T04:31:16.609Z,8.60
2018-04-24T04:33:44.978Z,8.48
2018-04-24T04:36:13.475Z,8.95
2018-04-24T04:38:41.855Z,9.23
2018-04-24T04:41:10.237Z,9.50
2018-04-24T04:43:38.632Z,8.27
2018-04-24T04:46:07.005Z,8.07
2018-04-24T04:48:35.397Z,8.88
2018-04-24T04:51:03.789Z,8.27
2018-04-24T04:53:33.349Z,8.40
2018-04-24T04:56:01.737Z,8.95
2018-04-24T04:58:30.132Z,9.73
2018-04-24T05:00:58.536Z,8.65
2018-04-24T05:03:27.679Z,9.52
2018-04-24T05:05:56.110Z,8.60
2018-04-24T05:08:25.284Z,10.20
2018-04-24T05:10:53.694Z,10.15
2018-04-24T05:13:22.843Z,10.98
2018-04-24T05:15:51.450Z,11.75
2018-04-24T05:18:19.839Z,11.38
2018-04-24T05:20:48.985Z,9.45
2018-04-24T05:23:17.388Z,9.70
2018-04-24T05:25:45.777Z,10.13
2018-04-24T05:28:14.282Z,10.32
2018-04-24T05:30:43.433Z,9.55
2018-04-24T05:33:12.105Z,11.25
2018-04-24T05:35:40.579Z,9.88
2018-04-24T05:38:08.897Z,9.25
2018-04-24T05:40:37.290Z,10.07
2018-04-24T05:43:05.672Z,9.18
2018-04-24T05:45:35.137Z,8.77
2018-04-24T05:48:03.520Z,9.27
2018-04-24T05:50:31.901Z,10.82
2018-04-24T05:53:00.326Z,8.77
2018-04-24T05:55:28.700Z,9.25
2018-04-24T05:57:57.880Z,9.27
2018-04-24T06:00:26.250Z,9.43
2018-04-24T06:02:55.436Z,8.65
2018-04-24T06:05:23.873Z,8.55
2018-04-24T06:07:52.477Z,9.88
2018-04-24T06:10:20.869Z,9.45
2018-04-24T06:12:49.262Z,9.85
2018-04-24T06:15:17.672Z,9.13
2018-04-24T06:17:46.809Z,9.38
2018-04-24T06:20:15.217Z,9.82
2018-04-24T06:22:43.605Z,9.70
2018-04-24T06:25:12.149Z,8.90
2018-04-24T06:27:40.529Z,9.02
2018-04-24T06:30:08.916Z,8.02
2018-04-24T06:32:37.324Z,9.20
2018-04-24T06:35:05.786Z,8.93
2018-04-24T06:37:34.192Z,9.45
2018-04-24T06:40:03.346Z,8.00
2018-04-24T06:42:31.759Z,8.93
2018-04-24T06:45:00.900Z,9.45
2018-04-24T06:47:29.279Z,8.00
2018-04-24T06:49:57.690Z,8.93
2018-04-24T06:52:26.084Z,8.18
2018-04-24T06:54:54.575Z,8.20
2018-04-24T06:57:22.897Z,7.78
2018-04-24T06:59:51.332Z,7.37
2018-04-24T07:02:20.472Z,8.05
2018-04-24T07:04:48.845Z,7.37
2018-04-24T07:07:17.233Z,7.27
2018-04-24T07:09:45.612Z,7.30
2018-04-24T07:12:14.008Z,6.90
2018-04-24T07:14:42.388Z,8.13
2018-04-24T07:17:11.057Z,7.77
2018-04-24T07:19:39.437Z,8.00
2018-04-24T07:22:07.888Z,7.53
2018-04-24T07:24:37.024Z,7.77
2018-04-24T07:27:05.403Z,8.13
2018-04-24T07:29:33.816Z,8.43
2018-04-24T07:32:02.196Z,7.17
2018-04-24T07:34:30.588Z,7.83
2018-04-24T07:36:59.733Z,7.97
2018-04-24T07:39:28.609Z,7.57
2018-04-24T07:41:56.990Z,7.70
2018-04-24T07:44:25.541Z,7.73
2018-04-24T07:46:54.027Z,7.80
2018-04-24T07:49:22.343Z,8.60
2018-04-24T07:51:50.743Z,7.27
2018-04-24T07:54:19.140Z,7.13
2018-04-24T07:56:48.321Z,6.43
2018-04-24T07:59:16.754Z,6.50
2018-04-24T08:01:45.876Z,6.53
2018-04-24T08:04:14.285Z,7.70
2018-04-24T08:06:43.430Z,7.43
2018-04-24T08:09:11.828Z,8.03
2018-04-24T08:11:40.201Z,6.73
2018-04-24T08:14:08.633Z,6.90
2018-04-24T08:16:37.863Z,7.47
2018-04-24T08:19:06.179Z,7.10
2018-04-24T08:21:34.577Z,6.50
2018-04-24T08:24:03.717Z,6.30
2018-04-24T08:26:32.111Z,7.93
2018-04-24T08:29:00.538Z,6.30
2018-04-24T08:31:29.820Z,7.10
2018-04-24T08:33:58.200Z,5.87
2018-04-24T08:36:26.613Z,6.20
2018-04-24T08:38:55.026Z,7.97
2018-04-24T08:41:23.408Z,8.07
2018-04-24T08:43:51.813Z,7.00
2018-04-24T08:46:20.201Z,7.10
2018-04-24T08:48:49.565Z,7.47
2018-04-24T08:51:17.948Z,9.07
2018-04-24T08:53:46.341Z,7.77
2018-04-24T08:56:14.749Z,5.90
2018-04-24T08:58:43.902Z,7.40
2018-04-24T09:01:12.306Z,6.27
2018-04-24T09:03:40.680Z,6.00
2018-04-24T09:06:09.091Z,6.73
2018-04-24T09:08:37.552Z,6.67
2018-04-24T09:11:05.907Z,6.60
2018-04-24T09:13:34.322Z,6.17
2018-04-24T09:16:03.457Z,6.50
2018-04-24T09:18:31.863Z,7.13
2018-04-24T09:21:00.245Z,6.70
2018-04-24T09:23:28.668Z,5.70
2018-04-24T09:25:57.040Z,5.60
2018-04-24T09:28:25.416Z,5.07
2018-04-24T09:30:53.824Z,4.90
2018-04-24T09:33:22.194Z,7.30
2018-04-24T09:35:50.693Z,5.80
2018-04-24T09:38:19.065Z,5.50
2018-04-24T09:40:47.669Z,5.03
2018-04-24T09:43:16.048Z,4.13
2018-04-24T09:45:44.443Z,4.67
2018-04-24T09:48:12.834Z,6.07
2018-04-24T09:50:41.968Z,5.23
2018-04-24T09:53:10.379Z,5.10
2018-04-24T09:55:38.755Z,4.83
2018-04-24T09:58:07.324Z,5.07
2018-04-24T10:00:36.681Z,5.47
2018-04-24T10:03:05.816Z,4.70
2018-04-24T10:05:34.205Z,4.83
2018-04-24T10:08:02.610Z,4.60
2018-04-24T10:10:31.004Z,4.47
2018-04-24T10:13:00.161Z,5.40
2018-04-24T10:15:28.582Z,4.17
2018-04-24T10:17:58.886Z,4.33
2018-04-24T10:20:27.465Z,4.37
2018-04-24T10:22:55.861Z,4.17
2018-04-24T10:25:24.229Z,4.23
2018-04-24T10:27:52.617Z,4.57
2018-04-24T10:30:20.988Z,5.17
2018-04-24T10:32:49.381Z,3.10
2018-04-24T10:35:18.516Z,3.87
2018-04-24T10:37:46.908Z,3.90
2018-04-24T10:40:15.308Z,3.40
2018-04-24T10:42:43.688Z,3.63
2018-04-24T10:45:12.854Z,3.70
2018-04-24T10:47:41.224Z,3.53
2018-04-24T10:50:09.651Z,3.50
2018-04-24T10:52:38.032Z,3.40
2018-04-24T10:55:06.655Z,3.30
2018-04-24T10:57:35.032Z,4.20
2018-04-24T11:00:03.424Z,3.97
2018-04-24T11:02:31.827Z,4.97
2018-04-24T11:05:00.204Z,5.03
2018-04-24T11:07:28.615Z,4.73
2018-04-24T11:09:56.989Z,3.73
2018-04-24T11:12:25.644Z,3.77
2018-04-24T11:14:54.021Z,3.60
2018-04-24T11:17:22.400Z,3.40
2018-04-24T11:19:50.875Z,3.57
2018-04-24T11:22:19.420Z,2.83
2018-04-24T11:24:47.822Z,3.00
2018-04-24T11:27:16.193Z,2.63
2018-04-24T11:29:44.788Z,3.93
2018-04-24T11:32:13.181Z,3.67
2018-04-24T11:34:41.564Z,2.90
2018-04-24T11:37:10.011Z,2.60
2018-04-24T11:39:38.393Z,3.33
2018-04-24T11:42:06.794Z,3.83
2018-04-24T11:44:35.174Z,3.80
2018-04-24T11:47:03.680Z,3.10
2018-04-24T11:49:32.854Z,2.97
2018-04-24T11:52:01.203Z,3.77
2018-04-24T11:54:29.611Z,3.60
2018-04-24T11:56:58.006Z,3.07
2018-04-24T11:59:27.179Z,3.23
2018-04-24T12:01:55.552Z,3.20
2018-04-24T12:04:23.941Z,3.43
2018-04-24T12:06:52.316Z,3.80
2018-04-24T12:09:20.696Z,2.80
2018-04-24T12:11:49.081Z,2.67
2018-04-24T12:14:17.454Z,3.10
2018-04-24T12:16:45.860Z,3.10
2018-04-24T12:19:14.239Z,2.70
2018-04-24T12:21:42.648Z,2.90
2018-04-24T12:24:11.784Z,2.67
2018-04-24T12:26:40.144Z,2.90
2018-04-24T12:29:08.540Z,2.87
2018-04-24T12:31:36.917Z,3.40
2018-04-24T12:34:05.320Z,2.90
2018-04-24T12:36:33.693Z,3.20
2018-04-24T12:39:02.413Z,2.80
2018-04-24T12:41:31.567Z,3.43
2018-04-24T12:43:59.934Z,3.47
2018-04-24T12:46:28.336Z,3.10
2018-04-24T12:48:56.709Z,3.20
2018-04-24T12:51:25.101Z,3.30
2018-04-24T12:53:53.464Z,3.20
2018-04-24T12:56:22.224Z,3.10
2018-04-24T12:58:50.587Z,3.07
2018-04-24T13:01:18.961Z,3.33
2018-04-24T13:03:47.415Z,3.03
2018-04-24T13:06:15.751Z,3.00
2018-04-24T13:08:45.345Z,3.60
2018-04-24T13:11:13.709Z,2.33
2018-04-24T13:13:42.090Z,3.33
2018-04-24T13:16:10.503Z,2.73
2018-04-24T13:18:38.883Z,3.00
2018-04-24T13:21:07.327Z,3.03
2018-04-24T13:23:35.715Z,3.03
2018-04-24T13:26:04.217Z,3.43
2018-04-24T13:28:32.595Z,2.83
2018-04-24T13:31:00.974Z,2.83
2018-04-24T13:33:29.369Z,3.30
2018-04-24T13:35:57.745Z,2.97
2018-04-24T13:38:26.145Z,3.90
2018-04-24T13:40:55.293Z,3.20
2018-04-24T13:43:23.801Z,3.10
2018-04-24T13:45:52.181Z,2.60
2018-04-24T13:48:20.549Z,3.30
2018-04-24T13:50:48.953Z,3.30
2018-04-24T13:53:17.316Z,3.63
2018-04-24T13:55:45.709Z,4.10
2018-04-24T13:58:14.078Z,3.00
2018-04-24T14:00:42.726Z,3.30
2018-04-24T14:03:11.103Z,3.20
2018-04-24T14:05:39.474Z,4.47
2018-04-24T14:08:07.878Z,2.80
2018-04-24T14:10:36.259Z,3.33
2018-04-24T14:13:04.660Z,3.63
2018-04-24T14:15:33.025Z,3.17
2018-04-24T14:18:01.678Z,2.93
2018-04-24T14:20:30.057Z,3.70
2018-04-24T14:22:58.453Z,3.23
2018-04-24T14:25:26.831Z,2.60
2018-04-24T14:27:55.201Z,3.00
2018-04-24T14:30:23.618Z,2.67
2018-04-24T14:32:51.997Z,2.90
2018-04-24T14:35:20.426Z,3.37
2018-04-24T14:37:48.809Z,2.80
2018-04-24T14:40:17.178Z,2.43
2018-04-24T14:42:45.652Z,3.70
2018-04-24T14:45:13.965Z,4.17
2018-04-24T14:47:42.369Z,3.17
2018-04-24T14:50:11.514Z,3.20
2018-04-24T14:52:39.939Z,3.43
2018-04-24T14:55:08.869Z,3.87
2018-04-24T14:57:37.244Z,2.83
2018-04-24T15:00:05.668Z,3.10
2018-04-24T15:02:34.040Z,3.40
2018-04-24T15:05:02.428Z,1.93
2018-04-24T15:07:30.800Z,3.50
2018-04-24T15:09:59.230Z,2.50
2018-04-24T15:12:28.365Z,2.83
2018-04-24T15:14:56.733Z,3.00
2018-04-24T15:17:25.139Z,3.17
2018-04-24T15:19:53.524Z,3.33
2018-04-24T15:22:21.919Z,3.30
2018-04-24T15:24:50.295Z,3.10
2018-04-24T15:27:18.837Z,3.47
2018-04-24T15:29:47.209Z,3.57
2018-04-24T15:32:15.581Z,2.53
2018-04-24T15:34:43.978Z,2.60
2018-04-24T15:37:12.343Z,3.50
2018-04-24T15:39:40.745Z,3.40
2018-04-24T15:42:09.122Z,2.67
2018-04-24T15:44:37.791Z,2.10
2018-04-24T15:47:06.162Z,3.07
2018-04-24T15:49:34.545Z,3.43
2018-04-24T15:52:02.936Z,2.37
2018-04-24T15:54:31.319Z,3.80
2018-04-24T15:56:59.712Z,3.13
2018-04-24T15:59:28.927Z,2.37
2018-04-24T16:01:58.377Z,3.00
2018-04-24T16:04:26.743Z,2.50
2018-04-24T16:06:55.120Z,3.10
2018-04-24T16:09:23.509Z,2.50
2018-04-24T16:11:51.889Z,4.10
2018-04-24T16:14:20.287Z,2.70
2018-04-24T16:16:48.649Z,3.80
2018-04-24T16:19:17.171Z,2.63
2018-04-24T16:21:45.473Z,2.73
2018-04-24T16:24:14.683Z,3.03
2018-04-24T16:26:43.868Z,3.10
2018-04-24T16:29:13.018Z,2.47
2018-04-24T16:31:41.412Z,3.07
2018-04-24T16:34:10.555Z,3.40
2018-04-24T16:36:39.152Z,2.93
2018-04-24T16:39:07.541Z,2.87
2018-04-24T16:41:35.911Z,3.50
2018-04-24T16:44:04.449Z,2.97
2018-04-24T16:46:33.642Z,3.20
2018-04-24T16:49:02.030Z,2.73
2018-04-24T16:51:31.277Z,2.53
2018-04-24T16:53:59.720Z,3.17
2018-04-24T16:56:28.102Z,3.40
2018-04-24T16:58:56.465Z,2.43
2018-04-24T17:01:25.639Z,7.20
2018-04-24T17:03:54.024Z,5.43
2018-04-24T17:06:22.428Z,5.20
2018-04-24T17:08:50.808Z,4.10
2018-04-24T17:11:19.387Z,3.60
2018-04-24T17:13:47.722Z,2.70
2018-04-24T17:16:16.241Z,2.67
2018-04-24T17:18:45.662Z,3.43
2018-04-24T17:21:14.297Z,3.87
2018-04-24T17:23:44.449Z,3.20
2018-04-24T17:26:13.764Z,3.70
2018-04-24T17:28:42.185Z,3.27
2018-04-24T17:31:10.857Z,3.00
2018-04-24T17:33:39.256Z,2.63
2018-04-24T17:36:07.930Z,2.40
2018-04-24T17:38:36.309Z,3.20
2018-04-24T17:41:04.964Z,2.70
2018-04-24T17:43:34.172Z,3.00
2018-04-24T17:46:03.175Z,3.50
2018-04-24T17:48:32.352Z,3.10
2018-04-24T17:51:00.731Z,3.60
2018-04-24T17:53:29.134Z,2.50
2018-04-24T17:55:57.761Z,4.40
2018-04-24T17:58:27.760Z,10.43
2018-04-24T18:00:56.285Z,7.93
2018-04-24T18:03:24.981Z,9.37
2018-04-24T18:05:53.655Z,7.60
2018-04-24T18:08:22.438Z,7.80
2018-04-24T18:10:50.846Z,13.17
2018-04-24T18:13:19.240Z,15.63
2018-04-24T18:15:47.664Z,8.63
2018-04-24T18:18:16.806Z,28.67
2018-04-24T18:20:45.492Z,5.53
2018-04-24T18:23:13.877Z,4.20
2018-04-24T18:25:42.247Z,3.13
2018-04-24T18:28:10.652Z,3.20
2018-04-24T18:30:39.044Z,3.97
2018-04-24T18:33:08.359Z,3.70
2018-04-24T18:35:37.540Z,3.27
2018-04-24T18:38:06.084Z,3.70
2018-04-24T18:40:34.612Z,5.13
2018-04-24T18:43:03.765Z,3.20
2018-04-24T18:45:32.168Z,3.07
2018-04-24T18:48:00.568Z,4.20
2018-04-24T18:50:29.818Z,11.00
2018-04-24T18:52:58.344Z,4.33
2018-04-24T18:55:27.814Z,22.17
2018-04-24T18:57:56.278Z,6.70
2018-04-24T19:00:24.813Z,4.37
2018-04-24T19:02:53.997Z,4.33
2018-04-24T19:05:22.372Z,4.63
2018-04-24T19:07:50.960Z,4.23
2018-04-24T19:10:19.281Z,3.90
2018-04-24T19:12:47.745Z,3.97
2018-04-24T19:15:16.145Z,3.83
2018-04-24T19:17:44.845Z,4.93
2018-04-24T19:20:13.257Z,5.17
2018-04-24T19:22:41.750Z,4.47
2018-04-24T19:25:16.622Z,4.60
2018-04-24T19:27:45.020Z,3.83
2018-04-24T19:30:13.411Z,4.77
2018-04-24T19:32:42.103Z,4.10
2018-04-24T19:35:10.537Z,4.03
2018-04-24T19:37:38.932Z,4.50
2018-04-24T19:40:12.834Z,3.20
2018-04-24T19:42:41.211Z,4.20
2018-04-24T19:45:09.612Z,4.20
2018-04-24T19:47:38.250Z,3.70
2018-04-24T19:50:12.291Z,4.20
2018-04-24T19:52:40.781Z,3.93
2018-04-24T19:55:15.084Z,4.60
2018-04-24T19:57:44.183Z,5.03
2018-04-24T20:00:13.156Z,7.33
2018-04-24T20:02:41.766Z,4.30
2018-04-24T20:05:10.557Z,4.67
2018-04-24T20:07:40.059Z,4.77
2018-04-24T20:10:09.629Z,4.57
2018-04-24T20:12:38.659Z,4.70
2018-04-24T20:15:07.070Z,4.27
2018-04-24T20:17:35.926Z,4.13
2018-04-24T20:20:06.698Z,4.40
2018-04-24T20:22:37.410Z,4.53
2018-04-24T20:25:07.130Z,3.83
2018-04-24T20:27:38.261Z,4.90
2018-04-24T20:30:11.119Z,5.37
2018-04-24T20:32:39.730Z,4.20
2018-04-24T20:35:08.225Z,4.10
2018-04-24T20:37:36.954Z,4.37
2018-04-24T20:40:05.654Z,5.07
2018-04-24T20:42:34.178Z,4.47
2018-04-24T20:45:02.565Z,4.43
2018-04-24T20:47:31.911Z,4.70
2018-04-24T20:50:00.341Z,5.20
2018-04-24T20:52:28.805Z,5.45
2018-04-24T20:54:57.998Z,4.87
2018-04-24T20:57:26.475Z,4.90
2018-04-24T20:59:55.831Z,6.30
2018-04-24T21:02:24.219Z,5.68
2018-04-24T21:04:53.341Z,6.25
2018-04-24T21:07:22.233Z,5.62
2018-04-24T21:09:51.084Z,6.07
2018-04-24T21:12:19.625Z,5.75
2018-04-24T21:14:48.005Z,4.70
2018-04-24T21:17:16.417Z,5.57
2018-04-24T21:19:44.965Z,5.18
2018-04-24T21:22:14.549Z,5.93
2018-04-24T21:24:43.060Z,5.18
2018-04-24T21:27:11.447Z,5.05
2018-04-24T21:29:40.688Z,4.50
2018-04-24T21:32:09.073Z,5.70
2018-04-24T21:34:37.514Z,5.10
2018-04-24T21:37:06.761Z,4.85
2018-04-24T21:39:35.545Z,5.20
2018-04-24T21:42:03.924Z,7.43
2018-04-24T21:44:32.302Z,4.15
2018-04-24T21:47:00.713Z,4.65
2018-04-24T21:49:29.213Z,5.30
2018-04-24T21:51:58.437Z,5.32
2018-04-24T21:54:26.821Z,5.07
2018-04-24T21:56:55.420Z,5.50
2018-04-24T21:59:23.801Z,6.62
2018-04-24T22:01:52.699Z,5.37
2018-04-24T22:04:22.381Z,5.90
2018-04-24T22:06:52.370Z,5.97
2018-04-24T22:09:22.236Z,5.25
2018-04-24T22:11:50.640Z,6.12
2018-04-24T22:14:19.193Z,5.37
2018-04-24T22:16:47.682Z,4.75
2018-04-24T22:19:16.051Z,6.10
2018-04-24T22:21:44.801Z,5.70
2018-04-24T22:24:13.961Z,5.60
2018-04-24T22:26:42.369Z,5.57
2018-04-24T22:29:12.086Z,5.35
2018-04-24T22:31:41.528Z,5.12
2018-04-24T22:34:09.905Z,5.40
2018-04-24T22:36:38.341Z,5.20
2018-04-24T22:39:08.064Z,4.70
2018-04-24T22:41:36.458Z,5.60
2018-04-24T22:44:04.897Z,5.15
2018-04-24T22:46:33.278Z,6.40
2018-04-24T22:49:02.754Z,6.35
2018-04-24T22:51:32.628Z,6.32
2018-04-24T22:54:01.025Z,5.90
2018-04-24T22:56:29.456Z,5.75
2018-04-24T22:58:58.612Z,4.97
2018-04-24T23:01:27.012Z,6.10
2018-04-24T23:03:55.776Z,6.05
2018-04-24T23:06:24.321Z,6.62
2018-04-24T23:08:53.209Z,6.47
2018-04-24T23:11:40.048Z,5.90
2018-04-24T23:14:27.893Z,5.57
2018-04-24T23:17:18.069Z,5.12
2018-04-24T23:20:09.848Z,5.40
2018-04-24T23:22:49.078Z,5.30
2018-04-24T23:25:25.326Z,5.62
2018-04-24T23:28:01.451Z,4.62
2018-04-24T23:30:37.380Z,5.57
2018-04-24T23:33:08.766Z,5.35
2018-04-24T23:35:38.164Z,4.80
2018-04-24T23:38:06.564Z,5.50
2018-04-24T23:40:34.962Z,5.05
2018-04-24T23:43:03.329Z,4.82
2018-04-24T23:45:31.752Z,5.43
2018-04-24T23:48:00.125Z,6.05
2018-04-24T23:50:28.527Z,5.90
2018-04-24T23:52:56.903Z,5.90
2018-04-24T23:55:25.340Z,6.40
2018-04-24T23:57:53.721Z,5.57
